Gaslog Saratoga — ZCEN3 — position and weather

sailwx.info

Track history (hours):
 
Tides and Currents Weather Stations Pressure Air Temp Water Temp Dewpoint Dewpoint Depression Visibility Wind Speed Wind Dir Waves Ship Positions

Gaslog Saratoga

Last reported at 2018-Jun-03 07:03 UTC. Time now 2018-Jun-20 19:14 UTC.
Position S 05°42' E 113°08'.
Warning: this ship's position is 17 days out of date.

Length 285 m; draft 9 m.

Type: Ship (hazmat cat C). MMSI: 310696000.

Date/timePositionNaut miles runAvg speedWind from/ knotsBaromVisibWave heightAir tempDewpointWater temp
2018-Jun-03 07:03S 05°42' E 113°08'12 8.9
2018-Jun-03 05:46S 05°36' E 112°58'4 8.9
2018-Jun-03 05:21S 05°35' E 112°55'  
2018-May-31 12:36N 00°57' E 105°35'22 9.6
2018-May-31 10:16N 01°08' E 105°16'3 9.9
2018-May-31 10:00N 01°10' E 105°14'510.0
2018-May-31 09:29N 01°12' E 105°09'510.3
2018-May-31 08:58N 01°15' E 105°04'510.2
2018-May-31 08:27N 01°16' E 104°59'510.3
2018-May-31 07:55N 01°18' E 104°54'610.3
2018-May-31 07:21N 01°19' E 104°48'510.4
2018-May-31 06:55N 01°20' E 104°44'410.6
2018-May-31 06:29N 01°21' E 104°40'510.5
2018-May-31 06:00N 01°23' E 104°35'5 9.9
2018-May-31 05:28N 01°23' E 104°29'5 9.6
2018-May-31 04:57N 01°21' E 104°25'4 9.3
2018-May-31 04:31N 01°19' E 104°22'5 9.0
2018-May-31 03:59N 01°17' E 104°17'5 9.3
2018-May-31 03:29N 01°16' E 104°13'510.0
2018-May-31 03:00N 01°16' E 104°08'5 9.6
2018-May-31 02:29N 01°15' E 104°03'5 9.8
2018-May-31 02:00N 01°14' E 103°58'5 9.9
2018-May-31 01:30N 01°12' E 103°54'510.5
2018-May-31 01:00N 01°10' E 103°49'4 6.9
2018-May-31 00:29N 01°11' E 103°45'0 0.3
2018-May-31 00:00N 01°11' E 103°45'0 0.0
2018-May-30 23:28N 01°11' E 103°45'0 0.1
2018-May-30 23:00N 01°11' E 103°45'0 0.0
2018-May-30 22:30N 01°11' E 103°45'0 0.0
2018-May-30 22:00N 01°11' E 103°45'0 0.0
2018-May-30 21:30N 01°11' E 103°45'0 0.0
2018-May-30 21:00N 01°11' E 103°45'0 0.0
2018-May-30 20:30N 01°11' E 103°45'0 0.0
2018-May-30 19:58N 01°11' E 103°45'0 0.1
2018-May-30 19:30N 01°11' E 103°45'0 0.1
2018-May-30 19:00N 01°11' E 103°45'0 0.0
2018-May-30 18:30N 01°11' E 103°45'0 0.0
2018-May-30 18:00N 01°11' E 103°45'0 0.0
2018-May-30 17:30N 01°11' E 103°45'0 0.2
2018-May-30 17:00N 01°11' E 103°45'0 0.1
2018-May-30 16:30N 01°11' E 103°45'0 0.1
2018-May-30 16:00N 01°11' E 103°45'0 0.1
2018-May-30 15:30N 01°11' E 103°45'0 0.1
2018-May-30 15:00N 01°11' E 103°45'0 0.0
2018-May-30 14:22N 01°11' E 103°45'0 0.0
2018-May-30 13:58N 01°11' E 103°45'0 0.0
2018-May-30 13:25N 01°11' E 103°45'0 0.0
2018-May-30 13:00N 01°11' E 103°45'0 0.0
2018-May-30 12:25N 01°11' E 103°45'0 0.0
2018-May-30 11:55N 01°11' E 103°45'0 0.0
2018-May-30 11:30N 01°11' E 103°45'0 0.0
2018-May-30 10:58N 01°11' E 103°45'0 0.0
2018-May-30 10:25N 01°11' E 103°45'0 0.0
2018-May-30 09:58N 01°11' E 103°45'0 0.0
2018-May-30 09:31N 01°11' E 103°45'0 0.0
2018-May-30 08:58N 01°11' E 103°45'0 0.0
2018-May-30 08:28N 01°11' E 103°45'0 0.0
2018-May-30 08:00N 01°11' E 103°45'0 0.0
2018-May-30 07:30N 01°11' E 103°45'0 0.0
2018-May-30 07:00N 01°11' E 103°45'0 0.1
2018-May-30 06:28N 01°11' E 103°45'0 0.0
2018-May-30 05:51N 01°11' E 103°45'0 0.1
2018-May-30 05:30N 01°11' E 103°45'0 0.0
2018-May-30 04:54N 01°11' E 103°45'0 0.0
2018-May-30 04:27N 01°11' E 103°45'0 0.0
2018-May-30 03:55N 01°11' E 103°45'0 0.1
2018-May-30 03:30N 01°11' E 103°45'0 0.0
2018-May-30 02:55N 01°11' E 103°45'0 0.0
2018-May-30 02:25N 01°11' E 103°45'0 0.0
2018-May-30 01:55N 01°11' E 103°45'0 0.3
2018-May-30 01:30N 01°11' E 103°45'0 0.3
2018-May-30 01:00N 01°11' E 103°45'0 0.2
2018-May-30 00:31N 01°11' E 103°45'2 3.2
2018-May-30 00:01N 01°11' E 103°47'4 7.8
2018-May-29 23:31N 01°12' E 103°51'713.4
2018-May-29 23:00N 01°14' E 103°57'611.3
2018-May-29 22:30N 01°16' E 104°02'611.3
2018-May-29 22:00N 01°16' E 104°08'610.8
2018-May-29 21:29N 01°17' E 104°13'5 9.2
2018-May-29 20:59N 01°18' E 104°18'5 8.9
2018-May-29 20:25N 01°21' E 104°22'4 8.8
2018-May-29 19:56N 01°24' E 104°25'4 9.3
2018-May-29 19:30N 01°26' E 104°29'16 5.9
2018-May-29 16:42N 01°23' E 104°45'0 0.0
2018-May-28 07:44N 01°23' E 104°45'  
Track history (hours):
 
Tides and Currents Weather Stations Pressure Air Temp Water Temp Dewpoint Dewpoint Depression Visibility Wind Speed Wind Dir Waves Ship Positions

Gaslog Saratoga

Last reported at 2018-Jun-03 07:03 UTC. Time now 2018-Jun-20 19:14 UTC.
Position S 05°42' E 113°08'.
Warning: this ship's position is 17 days out of date.

Length 285 m; draft 9 m.

Type: Ship (hazmat cat C). MMSI: 310696000.

Date/timePositionNaut miles runAvg speedWind from/ knotsBaromVisibWave heightAir tempDewpointWater temp
2018-Jun-03 07:03S 05°42' E 113°08'12 8.9
2018-Jun-03 05:46S 05°36' E 112°58'4 8.9
2018-Jun-03 05:21S 05°35' E 112°55'  
2018-May-31 12:36N 00°57' E 105°35'22 9.6
2018-May-31 10:16N 01°08' E 105°16'3 9.9
2018-May-31 10:00N 01°10' E 105°14'510.0
2018-May-31 09:29N 01°12' E 105°09'510.3
2018-May-31 08:58N 01°15' E 105°04'510.2
2018-May-31 08:27N 01°16' E 104°59'510.3
2018-May-31 07:55N 01°18' E 104°54'610.3
2018-May-31 07:21N 01°19' E 104°48'510.4
2018-May-31 06:55N 01°20' E 104°44'410.6
2018-May-31 06:29N 01°21' E 104°40'510.5
2018-May-31 06:00N 01°23' E 104°35'5 9.9
2018-May-31 05:28N 01°23' E 104°29'5 9.6
2018-May-31 04:57N 01°21' E 104°25'4 9.3
2018-May-31 04:31N 01°19' E 104°22'5 9.0
2018-May-31 03:59N 01°17' E 104°17'5 9.3
2018-May-31 03:29N 01°16' E 104°13'510.0
2018-May-31 03:00N 01°16' E 104°08'5 9.6
2018-May-31 02:29N 01°15' E 104°03'5 9.8
2018-May-31 02:00N 01°14' E 103°58'5 9.9
2018-May-31 01:30N 01°12' E 103°54'510.5
2018-May-31 01:00N 01°10' E 103°49'4 6.9
2018-May-31 00:29N 01°11' E 103°45'0 0.3
2018-May-31 00:00N 01°11' E 103°45'0 0.0
2018-May-30 23:28N 01°11' E 103°45'0 0.1
2018-May-30 23:00N 01°11' E 103°45'0 0.0
2018-May-30 22:30N 01°11' E 103°45'0 0.0
2018-May-30 22:00N 01°11' E 103°45'0 0.0
2018-May-30 21:30N 01°11' E 103°45'0 0.0
2018-May-30 21:00N 01°11' E 103°45'0 0.0
2018-May-30 20:30N 01°11' E 103°45'0 0.0
2018-May-30 19:58N 01°11' E 103°45'0 0.1
2018-May-30 19:30N 01°11' E 103°45'0 0.1
2018-May-30 19:00N 01°11' E 103°45'0 0.0
2018-May-30 18:30N 01°11' E 103°45'0 0.0
2018-May-30 18:00N 01°11' E 103°45'0 0.0
2018-May-30 17:30N 01°11' E 103°45'0 0.2
2018-May-30 17:00N 01°11' E 103°45'0 0.1
2018-May-30 16:30N 01°11' E 103°45'0 0.1
2018-May-30 16:00N 01°11' E 103°45'0 0.1
2018-May-30 15:30N 01°11' E 103°45'0 0.1
2018-May-30 15:00N 01°11' E 103°45'0 0.0
2018-May-30 14:22N 01°11' E 103°45'0 0.0
2018-May-30 13:58N 01°11' E 103°45'0 0.0
2018-May-30 13:25N 01°11' E 103°45'0 0.0
2018-May-30 13:00N 01°11' E 103°45'0 0.0
2018-May-30 12:25N 01°11' E 103°45'0 0.0
2018-May-30 11:55N 01°11' E 103°45'0 0.0
2018-May-30 11:30N 01°11' E 103°45'0 0.0
2018-May-30 10:58N 01°11' E 103°45'0 0.0
2018-May-30 10:25N 01°11' E 103°45'0 0.0
2018-May-30 09:58N 01°11' E 103°45'0 0.0
2018-May-30 09:31N 01°11' E 103°45'0 0.0
2018-May-30 08:58N 01°11' E 103°45'0 0.0
2018-May-30 08:28N 01°11' E 103°45'0 0.0
2018-May-30 08:00N 01°11' E 103°45'0 0.0
2018-May-30 07:30N 01°11' E 103°45'0 0.0
2018-May-30 07:00N 01°11' E 103°45'0 0.1
2018-May-30 06:28N 01°11' E 103°45'0 0.0
2018-May-30 05:51N 01°11' E 103°45'0 0.1
2018-May-30 05:30N 01°11' E 103°45'0 0.0
2018-May-30 04:54N 01°11' E 103°45'0 0.0
2018-May-30 04:27N 01°11' E 103°45'0 0.0
2018-May-30 03:55N 01°11' E 103°45'0 0.1
2018-May-30 03:30N 01°11' E 103°45'0 0.0
2018-May-30 02:55N 01°11' E 103°45'0 0.0
2018-May-30 02:25N 01°11' E 103°45'0 0.0
2018-May-30 01:55N 01°11' E 103°45'0 0.3
2018-May-30 01:30N 01°11' E 103°45'0 0.3
2018-May-30 01:00N 01°11' E 103°45'0 0.2
2018-May-30 00:31N 01°11' E 103°45'2 3.2
2018-May-30 00:01N 01°11' E 103°47'4 7.8
2018-May-29 23:31N 01°12' E 103°51'713.4
2018-May-29 23:00N 01°14' E 103°57'611.3
2018-May-29 22:30N 01°16' E 104°02'611.3
2018-May-29 22:00N 01°16' E 104°08'610.8
2018-May-29 21:29N 01°17' E 104°13'5 9.2
2018-May-29 20:59N 01°18' E 104°18'5 8.9
2018-May-29 20:25N 01°21' E 104°22'4 8.8
2018-May-29 19:56N 01°24' E 104°25'4 9.3
2018-May-29 19:30N 01°26' E 104°29'16 5.9
2018-May-29 16:42N 01°23' E 104°45'0 0.0
2018-May-28 07:44N 01°23' E 104°45'  

Dump ship's entire track history